sensor_id;sensor_type;location;lat;lon;timestamp;temperature;humidity
7360;DHT22;3720;48.274;7.796;2023-04-15T00:02:16;7.80;99.90
7360;DHT22;3720;48.274;7.796;2023-04-15T00:04:48;7.70;99.90
7360;DHT22;3720;48.274;7.796;2023-04-15T00:07:20;7.70;99.90
7360;DHT22;3720;48.274;7.796;2023-04-15T00:09:52;7.60;99.90
7360;DHT22;3720;48.274;7.796;2023-04-15T00:12:27;7.70;99.90
7360;DHT22;3720;48.274;7.796;2023-04-15T00:14:59;7.60;99.90
7360;DHT22;3720;48.274;7.796;2023-04-15T00:17:33;7.60;99.90
7360;DHT22;3720;48.274;7.796;2023-04-15T00:20:06;7.60;99.90
7360;DHT22;3720;48.274;7.796;2023-04-15T00:22:38;7.60;99.90
7360;DHT22;3720;48.274;7.796;2023-04-15T00:25:10;7.50;99.90
7360;DHT22;3720;48.274;7.796;2023-04-15T00:27:42;7.50;99.90
7360;DHT22;3720;48.274;7.796;2023-04-15T00:30:13;7.50;99.90
7360;DHT22;3720;48.274;7.796;2023-04-15T00:32:47;7.40;99.90
7360;DHT22;3720;48.274;7.796;2023-04-15T00:35:19;7.50;99.90
7360;DHT22;3720;48.274;7.796;2023-04-15T00:37:51;7.50;99.90
7360;DHT22;3720;48.274;7.796;2023-04-15T00:40:23;7.50;99.90
7360;DHT22;3720;48.274;7.796;2023-04-15T00:42:55;7.50;99.90
7360;DHT22;3720;48.274;7.796;2023-04-15T00:45:27;7.50;99.90
7360;DHT22;3720;48.274;7.796;2023-04-15T00:48:01;7.40;99.90
7360;DHT22;3720;48.274;7.796;2023-04-15T00:50:34;7.30;99.90
7360;DHT22;3720;48.274;7.796;2023-04-15T00:53:06;7.20;99.90
7360;DHT22;3720;48.274;7.796;2023-04-15T00:55:37;7.10;99.90
7360;DHT22;3720;48.274;7.796;2023-04-15T00:58:09;7.10;99.90
7360;DHT22;3720;48.274;7.796;2023-04-15T01:00:42;7.00;99.90
7360;DHT22;3720;48.274;7.796;2023-04-15T01:03:15;7.00;99.90
7360;DHT22;3720;48.274;7.796;2023-04-15T01:05:48;6.90;99.90
7360;DHT22;3720;48.274;7.796;2023-04-15T01:08:21;6.90;99.90
7360;DHT22;3720;48.274;7.796;2023-04-15T01:10:53;7.00;99.90
7360;DHT22;3720;48.274;7.796;2023-04-15T01:13:26;7.10;99.90
7360;DHT22;3720;48.274;7.796;2023-04-15T01:15:58;7.10;99.90
7360;DHT22;3720;48.274;7.796;2023-04-15T01:18:31;7.10;99.90
7360;DHT22;3720;48.274;7.796;2023-04-15T01:21:04;7.10;99.90
7360;DHT22;3720;48.274;7.796;2023-04-15T01:23:37;7.10;99.90
7360;DHT22;3720;48.274;7.796;2023-04-15T01:26:12;7.10;99.90
7360;DHT22;3720;48.274;7.796;2023-04-15T01:28:44;7.10;99.90
7360;DHT22;3720;48.274;7.796;2023-04-15T01:31:16;7.10;99.90
7360;DHT22;3720;48.274;7.796;2023-04-15T01:33:48;7.10;99.90
7360;DHT22;3720;48.274;7.796;2023-04-15T01:36:20;7.20;99.90
7360;DHT22;3720;48.274;7.796;2023-04-15T01:38:52;7.20;99.90
7360;DHT22;3720;48.274;7.796;2023-04-15T01:41:26;7.30;99.90
7360;DHT22;3720;48.274;7.796;2023-04-15T01:43:58;7.40;99.90
7360;DHT22;3720;48.274;7.796;2023-04-15T01:46:31;7.30;99.90
7360;DHT22;3720;48.274;7.796;2023-04-15T01:49:03;7.30;99.90
7360;DHT22;3720;48.274;7.796;2023-04-15T01:51:34;7.30;99.90
7360;DHT22;3720;48.274;7.796;2023-04-15T01:54:06;7.20;99.90
7360;DHT22;3720;48.274;7.796;2023-04-15T01:56:39;7.20;99.90
7360;DHT22;3720;48.274;7.796;2023-04-15T01:59:12;7.20;99.90
7360;DHT22;3720;48.274;7.796;2023-04-15T02:01:44;7.20;99.90
7360;DHT22;3720;48.274;7.796;2023-04-15T02:04:16;7.10;99.90
7360;DHT22;3720;48.274;7.796;2023-04-15T02:06:48;7.10;99.90
7360;DHT22;3720;48.274;7.796;2023-04-15T02:09:20;7.10;99.90
7360;DHT22;3720;48.274;7.796;2023-04-15T02:11:53;7.10;99.90
7360;DHT22;3720;48.274;7.796;2023-04-15T02:14:25;7.10;99.90
7360;DHT22;3720;48.274;7.796;2023-04-15T02:16:57;7.20;99.90
7360;DHT22;3720;48.274;7.796;2023-04-15T02:19:36;7.20;99.90
7360;DHT22;3720;48.274;7.796;2023-04-15T02:22:08;7.20;99.90
7360;DHT22;3720;48.274;7.796;2023-04-15T02:24:44;7.20;99.90
7360;DHT22;3720;48.274;7.796;2023-04-15T02:27:18;7.10;99.90
7360;DHT22;3720;48.274;7.796;2023-04-15T02:29:50;7.20;99.90
7360;DHT22;3720;48.274;7.796;2023-04-15T02:32:21;7.10;99.90
7360;DHT22;3720;48.274;7.796;2023-04-15T02:34:53;7.10;99.90
7360;DHT22;3720;48.274;7.796;2023-04-15T02:37:25;7.10;99.90
7360;DHT22;3720;48.274;7.796;2023-04-15T02:39:58;7.10;99.90
7360;DHT22;3720;48.274;7.796;2023-04-15T02:42:31;7.00;99.90
7360;DHT22;3720;48.274;7.796;2023-04-15T02:45:04;7.10;99.90
7360;DHT22;3720;48.274;7.796;2023-04-15T02:47:37;7.10;99.90
7360;DHT22;3720;48.274;7.796;2023-04-15T02:50:11;7.10;99.90
7360;DHT22;3720;48.274;7.796;2023-04-15T02:52:44;7.10;99.90
7360;DHT22;3720;48.274;7.796;2023-04-15T02:55:16;7.00;99.90
7360;DHT22;3720;48.274;7.796;2023-04-15T02:57:50;7.00;99.90
7360;DHT22;3720;48.274;7.796;2023-04-15T03:00:22;7.10;99.90
7360;DHT22;3720;48.274;7.796;2023-04-15T03:02:57;7.10;99.90
7360;DHT22;3720;48.274;7.796;2023-04-15T03:05:29;7.00;99.90
7360;DHT22;3720;48.274;7.796;2023-04-15T03:08:01;7.00;99.90
7360;DHT22;3720;48.274;7.796;2023-04-15T03:10:34;7.00;99.90
7360;DHT22;3720;48.274;7.796;2023-04-15T03:13:07;7.00;99.90
7360;DHT22;3720;48.274;7.796;2023-04-15T03:15:39;6.90;99.90
7360;DHT22;3720;48.274;7.796;2023-04-15T03:18:11;6.90;99.90
7360;DHT22;3720;48.274;7.796;2023-04-15T03:20:43;6.90;99.90
7360;DHT22;3720;48.274;7.796;2023-04-15T03:23:15;6.90;99.90
7360;DHT22;3720;48.274;7.796;2023-04-15T03:25:47;6.90;99.90
7360;DHT22;3720;48.274;7.796;2023-04-15T03:28:20;6.90;99.90
7360;DHT22;3720;48.274;7.796;2023-04-15T03:30:52;6.90;99.90
7360;DHT22;3720;48.274;7.796;2023-04-15T03:33:24;6.80;99.90
7360;DHT22;3720;48.274;7.796;2023-04-15T03:35:56;6.90;99.90
7360;DHT22;3720;48.274;7.796;2023-04-15T03:38:28;6.90;99.90
7360;DHT22;3720;48.274;7.796;2023-04-15T03:40:59;6.90;99.90
7360;DHT22;3720;48.274;7.796;2023-04-15T03:43:33;6.90;99.90
7360;DHT22;3720;48.274;7.796;2023-04-15T03:46:05;6.90;99.90
7360;DHT22;3720;48.274;7.796;2023-04-15T03:48:36;6.90;99.90
7360;DHT22;3720;48.274;7.796;2023-04-15T03:51:08;6.90;99.90
7360;DHT22;3720;48.274;7.796;2023-04-15T03:53:41;6.90;99.90
7360;DHT22;3720;48.274;7.796;2023-04-15T03:56:12;7.00;99.90
7360;DHT22;3720;48.274;7.796;2023-04-15T03:58:46;7.00;99.90
7360;DHT22;3720;48.274;7.796;2023-04-15T04:01:18;7.10;99.90
7360;DHT22;3720;48.274;7.796;2023-04-15T04:03:50;7.10;99.90
7360;DHT22;3720;48.274;7.796;2023-04-15T04:06:21;7.10;99.90
7360;DHT22;3720;48.274;7.796;2023-04-15T04:08:53;7.20;99.90
7360;DHT22;3720;48.274;7.796;2023-04-15T04:11:26;7.20;99.90
7360;DHT22;3720;48.274;7.796;2023-04-15T04:14:00;7.10;99.90
7360;DHT22;3720;48.274;7.796;2023-04-15T04:16:32;7.10;99.90
7360;DHT22;3720;48.274;7.796;2023-04-15T04:19:04;7.10;99.90
7360;DHT22;3720;48.274;7.796;2023-04-15T04:21:36;7.10;99.90
7360;DHT22;3720;48.274;7.796;2023-04-15T04:24:09;7.20;99.90
7360;DHT22;3720;48.274;7.796;2023-04-15T04:26:41;7.20;99.90
7360;DHT22;3720;48.274;7.796;2023-04-15T04:29:14;7.20;99.90
7360;DHT22;3720;48.274;7.796;2023-04-15T04:31:46;7.30;99.90
7360;DHT22;3720;48.274;7.796;2023-04-15T04:34:18;7.30;99.90
7360;DHT22;3720;48.274;7.796;2023-04-15T04:36:50;7.20;99.90
7360;DHT22;3720;48.274;7.796;2023-04-15T04:39:21;7.20;99.90
7360;DHT22;3720;48.274;7.796;2023-04-15T04:41:53;7.30;99.90
7360;DHT22;3720;48.274;7.796;2023-04-15T04:44:27;7.30;99.90
7360;DHT22;3720;48.274;7.796;2023-04-15T04:46:58;7.30;99.90
7360;DHT22;3720;48.274;7.796;2023-04-15T04:49:30;7.30;99.90
7360;DHT22;3720;48.274;7.796;2023-04-15T04:52:02;7.30;99.90
7360;DHT22;3720;48.274;7.796;2023-04-15T04:54:34;7.40;99.90
7360;DHT22;3720;48.274;7.796;2023-04-15T04:57:07;7.40;99.90
7360;DHT22;3720;48.274;7.796;2023-04-15T04:59:40;7.50;99.90
7360;DHT22;3720;48.274;7.796;2023-04-15T05:02:12;7.50;99.90
7360;DHT22;3720;48.274;7.796;2023-04-15T05:04:44;7.50;99.90
7360;DHT22;3720;48.274;7.796;2023-04-15T05:07:16;7.40;99.90
7360;DHT22;3720;48.274;7.796;2023-04-15T05:09:48;7.40;99.90
7360;DHT22;3720;48.274;7.796;2023-04-15T05:12:19;7.40;99.90
7360;DHT22;3720;48.274;7.796;2023-04-15T05:14:53;7.40;99.90
7360;DHT22;3720;48.274;7.796;2023-04-15T05:17:24;7.50;99.90
7360;DHT22;3720;48.274;7.796;2023-04-15T05:19:56;7.50;99.90
7360;DHT22;3720;48.274;7.796;2023-04-15T05:22:28;7.50;99.90
7360;DHT22;3720;48.274;7.796;2023-04-15T05:25:00;7.50;99.90
7360;DHT22;3720;48.274;7.796;2023-04-15T05:27:32;7.50;99.90
7360;DHT22;3720;48.274;7.796;2023-04-15T05:30:07;7.60;99.90
7360;DHT22;3720;48.274;7.796;2023-04-15T05:32:40;7.60;99.90
7360;DHT22;3720;48.274;7.796;2023-04-15T05:35:12;7.60;99.90
7360;DHT22;3720;48.274;7.796;2023-04-15T05:37:44;7.60;99.90
7360;DHT22;3720;48.274;7.796;2023-04-15T05:40:16;7.70;99.90
7360;DHT22;3720;48.274;7.796;2023-04-15T05:42:49;7.70;99.90
7360;DHT22;3720;48.274;7.796;2023-04-15T05:45:22;7.70;99.90
7360;DHT22;3720;48.274;7.796;2023-04-15T05:47:54;7.70;99.90
7360;DHT22;3720;48.274;7.796;2023-04-15T05:50:26;7.70;99.90
7360;DHT22;3720;48.274;7.796;2023-04-15T05:52:58;7.70;99.90
7360;DHT22;3720;48.274;7.796;2023-04-15T05:55:30;7.70;99.90
7360;DHT22;3720;48.274;7.796;2023-04-15T05:58:02;7.70;99.90
7360;DHT22;3720;48.274;7.796;2023-04-15T06:00:35;7.70;99.90
7360;DHT22;3720;48.274;7.796;2023-04-15T06:03:08;7.80;99.90
7360;DHT22;3720;48.274;7.796;2023-04-15T06:05:41;7.80;99.90
7360;DHT22;3720;48.274;7.796;2023-04-15T06:08:14;7.90;99.90
7360;DHT22;3720;48.274;7.796;2023-04-15T06:10:46;7.90;99.90
7360;DHT22;3720;48.274;7.796;2023-04-15T06:13:18;7.90;99.90
7360;DHT22;3720;48.274;7.796;2023-04-15T06:15:52;8.00;99.90
7360;DHT22;3720;48.274;7.796;2023-04-15T06:18:24;8.00;99.90
7360;DHT22;3720;48.274;7.796;2023-04-15T06:20:56;8.10;99.90
7360;DHT22;3720;48.274;7.796;2023-04-15T06:23:28;8.20;99.90
7360;DHT22;3720;48.274;7.796;2023-04-15T06:26:00;8.20;99.90
7360;DHT22;3720;48.274;7.796;2023-04-15T06:28:32;8.30;99.90
7360;DHT22;3720;48.274;7.796;2023-04-15T06:31:05;8.30;99.90
7360;DHT22;3720;48.274;7.796;2023-04-15T06:33:37;8.30;99.90
7360;DHT22;3720;48.274;7.796;2023-04-15T06:36:10;8.40;99.90
7360;DHT22;3720;48.274;7.796;2023-04-15T06:38:42;8.40;99.90
7360;DHT22;3720;48.274;7.796;2023-04-15T06:41:14;8.60;99.90
7360;DHT22;3720;48.274;7.796;2023-04-15T06:43:45;8.60;99.90
7360;DHT22;3720;48.274;7.796;2023-04-15T06:46:19;8.70;99.90
7360;DHT22;3720;48.274;7.796;2023-04-15T06:48:51;8.80;99.90
7360;DHT22;3720;48.274;7.796;2023-04-15T06:51:23;8.90;99.90
7360;DHT22;3720;48.274;7.796;2023-04-15T06:53:55;9.00;99.90
7360;DHT22;3720;48.274;7.796;2023-04-15T06:56:27;9.10;99.90
7360;DHT22;3720;48.274;7.796;2023-04-15T06:58:59;9.20;99.90
7360;DHT22;3720;48.274;7.796;2023-04-15T07:01:34;9.30;99.90
7360;DHT22;3720;48.274;7.796;2023-04-15T07:04:06;9.40;99.90
7360;DHT22;3720;48.274;7.796;2023-04-15T07:06:38;9.40;99.90
7360;DHT22;3720;48.274;7.796;2023-04-15T07:09:11;9.50;99.90
7360;DHT22;3720;48.274;7.796;2023-04-15T07:11:43;9.50;99.90
7360;DHT22;3720;48.274;7.796;2023-04-15T07:14:15;9.50;99.90
7360;DHT22;3720;48.274;7.796;2023-04-15T07:16:48;9.60;99.90
7360;DHT22;3720;48.274;7.796;2023-04-15T07:19:20;9.70;99.90
7360;DHT22;3720;48.274;7.796;2023-04-15T07:21:52;9.80;99.90
7360;DHT22;3720;48.274;7.796;2023-04-15T07:24:24;9.90;99.90
7360;DHT22;3720;48.274;7.796;2023-04-15T07:26:57;10.10;99.90
7360;DHT22;3720;48.274;7.796;2023-04-15T07:29:29;10.20;99.90
7360;DHT22;3720;48.274;7.796;2023-04-15T07:32:03;10.30;99.90
7360;DHT22;3720;48.274;7.796;2023-04-15T07:34:35;10.40;99.90
7360;DHT22;3720;48.274;7.796;2023-04-15T07:37:07;10.50;99.90
7360;DHT22;3720;48.274;7.796;2023-04-15T07:39:39;10.60;99.90
7360;DHT22;3720;48.274;7.796;2023-04-15T07:42:12;10.60;99.90
7360;DHT22;3720;48.274;7.796;2023-04-15T07:44:44;10.70;99.90
7360;DHT22;3720;48.274;7.796;2023-04-15T07:47:18;10.90;99.90
7360;DHT22;3720;48.274;7.796;2023-04-15T07:49:50;10.90;99.90
7360;DHT22;3720;48.274;7.796;2023-04-15T07:52:22;10.90;99.90
7360;DHT22;3720;48.274;7.796;2023-04-15T07:54:54;11.00;99.90
7360;DHT22;3720;48.274;7.796;2023-04-15T07:57:26;11.10;99.90
7360;DHT22;3720;48.274;7.796;2023-04-15T07:59:58;11.20;99.90
7360;DHT22;3720;48.274;7.796;2023-04-15T08:02:31;11.30;99.90
7360;DHT22;3720;48.274;7.796;2023-04-15T08:05:04;11.40;99.90
7360;DHT22;3720;48.274;7.796;2023-04-15T08:07:38;11.40;99.90
7360;DHT22;3720;48.274;7.796;2023-04-15T08:10:10;11.50;99.90
7360;DHT22;3720;48.274;7.796;2023-04-15T08:12:42;11.60;99.90
7360;DHT22;3720;48.274;7.796;2023-04-15T08:15:18;11.70;99.90
7360;DHT22;3720;48.274;7.796;2023-04-15T08:17:52;11.70;99.90
7360;DHT22;3720;48.274;7.796;2023-04-15T08:20:24;11.70;99.90
7360;DHT22;3720;48.274;7.796;2023-04-15T08:22:56;11.60;99.90
7360;DHT22;3720;48.274;7.796;2023-04-15T08:25:28;11.70;99.90
7360;DHT22;3720;48.274;7.796;2023-04-15T08:28:03;11.80;99.90
7360;DHT22;3720;48.274;7.796;2023-04-15T08:30:36;11.80;99.90
7360;DHT22;3720;48.274;7.796;2023-04-15T08:33:09;11.90;99.90
7360;DHT22;3720;48.274;7.796;2023-04-15T08:35:51;12.00;99.90
7360;DHT22;3720;48.274;7.796;2023-04-15T08:38:23;12.10;99.90
7360;DHT22;3720;48.274;7.796;2023-04-15T08:40:56;12.10;99.90
7360;DHT22;3720;48.274;7.796;2023-04-15T08:43:33;12.30;99.90
7360;DHT22;3720;48.274;7.796;2023-04-15T08:46:07;12.50;99.90
7360;DHT22;3720;48.274;7.796;2023-04-15T08:48:41;12.80;99.90
7360;DHT22;3720;48.274;7.796;2023-04-15T08:51:14;12.90;99.90
7360;DHT22;3720;48.274;7.796;2023-04-15T08:53:47;12.90;99.90
7360;DHT22;3720;48.274;7.796;2023-04-15T08:58:53;13.00;99.90
7360;DHT22;3720;48.274;7.796;2023-04-15T09:01:26;13.10;99.90
7360;DHT22;3720;48.274;7.796;2023-04-15T09:04:02;13.20;99.90
7360;DHT22;3720;48.274;7.796;2023-04-15T09:06:36;13.40;99.90
7360;DHT22;3720;48.274;7.796;2023-04-15T09:09:11;13.50;99.90
7360;DHT22;3720;48.274;7.796;2023-04-15T09:11:44;13.50;99.90
7360;DHT22;3720;48.274;7.796;2023-04-15T09:14:16;13.50;99.90
7360;DHT22;3720;48.274;7.796;2023-04-15T09:16:58;13.60;99.90
7360;DHT22;3720;48.274;7.796;2023-04-15T09:19:32;13.70;99.90
7360;DHT22;3720;48.274;7.796;2023-04-15T09:22:04;13.70;99.90
7360;DHT22;3720;48.274;7.796;2023-04-15T09:24:38;13.90;99.90
7360;DHT22;3720;48.274;7.796;2023-04-15T09:27:15;14.20;99.90
7360;DHT22;3720;48.274;7.796;2023-04-15T09:29:49;14.40;99.90
7360;DHT22;3720;48.274;7.796;2023-04-15T09:32:21;14.60;99.90
7360;DHT22;3720;48.274;7.796;2023-04-15T09:34:55;14.60;99.90
7360;DHT22;3720;48.274;7.796;2023-04-15T09:37:34;14.70;99.90
7360;DHT22;3720;48.274;7.796;2023-04-15T09:40:07;14.90;99.90
7360;DHT22;3720;48.274;7.796;2023-04-15T09:42:55;15.10;99.90
7360;DHT22;3720;48.274;7.796;2023-04-15T09:45:27;15.10;99.90
7360;DHT22;3720;48.274;7.796;2023-04-15T09:48:14;15.30;99.90
7360;DHT22;3720;48.274;7.796;2023-04-15T09:50:49;15.50;99.90
7360;DHT22;3720;48.274;7.796;2023-04-15T09:53:24;15.70;99.90
7360;DHT22;3720;48.274;7.796;2023-04-15T09:55:57;15.90;99.90
7360;DHT22;3720;48.274;7.796;2023-04-15T09:58:32;16.10;99.90
7360;DHT22;3720;48.274;7.796;2023-04-15T10:01:04;16.30;99.90
7360;DHT22;3720;48.274;7.796;2023-04-15T10:03:39;16.50;99.90
7360;DHT22;3720;48.274;7.796;2023-04-15T10:06:13;16.70;99.90
7360;DHT22;3720;48.274;7.796;2023-04-15T10:08:46;16.80;99.90
7360;DHT22;3720;48.274;7.796;2023-04-15T10:11:20;17.00;99.90
7360;DHT22;3720;48.274;7.796;2023-04-15T10:13:54;17.10;99.90
7360;DHT22;3720;48.274;7.796;2023-04-15T10:16:27;17.20;99.90
7360;DHT22;3720;48.274;7.796;2023-04-15T10:19:01;17.20;99.90
7360;DHT22;3720;48.274;7.796;2023-04-15T10:21:36;17.30;99.90
7360;DHT22;3720;48.274;7.796;2023-04-15T10:24:09;17.40;99.90
7360;DHT22;3720;48.274;7.796;2023-04-15T10:26:41;17.60;99.90
7360;DHT22;3720;48.274;7.796;2023-04-15T10:29:15;17.80;99.90
7360;DHT22;3720;48.274;7.796;2023-04-15T10:31:48;18.00;99.90
7360;DHT22;3720;48.274;7.796;2023-04-15T10:34:20;18.10;99.90
7360;DHT22;3720;48.274;7.796;2023-04-15T10:36:56;18.10;99.90
7360;DHT22;3720;48.274;7.796;2023-04-15T10:39:42;18.20;99.90
7360;DHT22;3720;48.274;7.796;2023-04-15T10:42:15;18.20;99.90
7360;DHT22;3720;48.274;7.796;2023-04-15T10:44:48;18.10;99.90
7360;DHT22;3720;48.274;7.796;2023-04-15T10:47:21;18.00;99.90
7360;DHT22;3720;48.274;7.796;2023-04-15T10:49:57;18.10;99.90
7360;DHT22;3720;48.274;7.796;2023-04-15T10:52:31;18.30;99.90
7360;DHT22;3720;48.274;7.796;2023-04-15T10:55:12;18.70;99.90
7360;DHT22;3720;48.274;7.796;2023-04-15T10:57:45;19.00;99.90
7360;DHT22;3720;48.274;7.796;2023-04-15T11:00:18;19.10;99.90
7360;DHT22;3720;48.274;7.796;2023-04-15T11:02:53;19.40;99.90
7360;DHT22;3720;48.274;7.796;2023-04-15T11:05:50;19.80;99.90
7360;DHT22;3720;48.274;7.796;2023-04-15T11:08:53;20.10;99.90
7360;DHT22;3720;48.274;7.796;2023-04-15T11:14:32;19.80;99.90
7360;DHT22;3720;48.274;7.796;2023-04-15T11:17:04;19.80;99.90
7360;DHT22;3720;48.274;7.796;2023-04-15T11:19:37;20.00;99.90
7360;DHT22;3720;48.274;7.796;2023-04-15T11:22:10;20.40;99.90
7360;DHT22;3720;48.274;7.796;2023-04-15T11:24:48;20.50;99.90
7360;DHT22;3720;48.274;7.796;2023-04-15T11:27:21;20.60;99.90
7360;DHT22;3720;48.274;7.796;2023-04-15T11:29:53;20.80;99.90
7360;DHT22;3720;48.274;7.796;2023-04-15T11:32:25;20.90;99.90
7360;DHT22;3720;48.274;7.796;2023-04-15T11:34:56;20.90;99.90
7360;DHT22;3720;48.274;7.796;2023-04-15T11:37:29;21.00;99.90
7360;DHT22;3720;48.274;7.796;2023-04-15T11:40:06;21.30;99.90
7360;DHT22;3720;48.274;7.796;2023-04-15T11:42:38;21.50;99.40
7360;DHT22;3720;48.274;7.796;2023-04-15T11:45:12;21.60;99.90
7360;DHT22;3720;48.274;7.796;2023-04-15T11:47:44;21.90;97.80
7360;DHT22;3720;48.274;7.796;2023-04-15T11:50:17;22.10;97.90
7360;DHT22;3720;48.274;7.796;2023-04-15T11:52:52;22.50;96.30
7360;DHT22;3720;48.274;7.796;2023-04-15T11:55:26;22.80;95.30
7360;DHT22;3720;48.274;7.796;2023-04-15T11:58:08;22.90;94.80
7360;DHT22;3720;48.274;7.796;2023-04-15T12:00:45;22.80;94.60
7360;DHT22;3720;48.274;7.796;2023-04-15T12:03:24;23.00;93.10
7360;DHT22;3720;48.274;7.796;2023-04-15T12:06:18;23.00;91.20
7360;DHT22;3720;48.274;7.796;2023-04-15T12:09:02;23.10;88.00
7360;DHT22;3720;48.274;7.796;2023-04-15T12:11:38;23.20;90.20
7360;DHT22;3720;48.274;7.796;2023-04-15T12:14:12;23.20;86.30
7360;DHT22;3720;48.274;7.796;2023-04-15T12:16:47;23.20;84.20
7360;DHT22;3720;48.274;7.796;2023-04-15T12:19:24;23.20;84.70
7360;DHT22;3720;48.274;7.796;2023-04-15T12:21:58;23.30;84.40
7360;DHT22;3720;48.274;7.796;2023-04-15T12:24:31;23.40;83.30
7360;DHT22;3720;48.274;7.796;2023-04-15T12:27:06;23.60;83.50
7360;DHT22;3720;48.274;7.796;2023-04-15T12:29:39;23.60;83.10
7360;DHT22;3720;48.274;7.796;2023-04-15T12:32:13;23.70;79.90
7360;DHT22;3720;48.274;7.796;2023-04-15T12:34:49;23.40;74.90
7360;DHT22;3720;48.274;7.796;2023-04-15T12:37:21;22.70;74.20
7360;DHT22;3720;48.274;7.796;2023-04-15T12:39:53;22.00;74.80
7360;DHT22;3720;48.274;7.796;2023-04-15T12:42:27;21.90;76.80
7360;DHT22;3720;48.274;7.796;2023-04-15T12:44:58;22.20;77.40
7360;DHT22;3720;48.274;7.796;2023-04-15T12:47:31;22.70;75.20
7360;DHT22;3720;48.274;7.796;2023-04-15T12:50:03;23.10;73.70
7360;DHT22;3720;48.274;7.796;2023-04-15T12:52:36;23.40;70.90
7360;DHT22;3720;48.274;7.796;2023-04-15T12:55:08;23.70;73.70
7360;DHT22;3720;48.274;7.796;2023-04-15T12:57:41;23.90;67.80
7360;DHT22;3720;48.274;7.796;2023-04-15T13:00:14;24.00;65.50
7360;DHT22;3720;48.274;7.796;2023-04-15T13:02:47;24.10;66.00
7360;DHT22;3720;48.274;7.796;2023-04-15T13:05:18;24.10;62.30
7360;DHT22;3720;48.274;7.796;2023-04-15T13:07:50;24.30;60.40
7360;DHT22;3720;48.274;7.796;2023-04-15T13:10:22;24.30;60.70
7360;DHT22;3720;48.274;7.796;2023-04-15T13:12:56;24.30;59.40
7360;DHT22;3720;48.274;7.796;2023-04-15T13:15:28;24.00;56.90
7360;DHT22;3720;48.274;7.796;2023-04-15T13:18:01;23.90;58.70
7360;DHT22;3720;48.274;7.796;2023-04-15T13:20:33;23.70;57.50
7360;DHT22;3720;48.274;7.796;2023-04-15T13:23:04;23.60;56.60
7360;DHT22;3720;48.274;7.796;2023-04-15T13:25:36;23.50;57.50
7360;DHT22;3720;48.274;7.796;2023-04-15T13:28:10;23.20;58.80
7360;DHT22;3720;48.274;7.796;2023-04-15T13:30:42;23.10;56.90
7360;DHT22;3720;48.274;7.796;2023-04-15T13:33:15;23.10;57.00
7360;DHT22;3720;48.274;7.796;2023-04-15T13:35:47;23.10;57.50
7360;DHT22;3720;48.274;7.796;2023-04-15T13:38:19;23.20;55.60
7360;DHT22;3720;48.274;7.796;2023-04-15T13:40:51;23.20;55.80
7360;DHT22;3720;48.274;7.796;2023-04-15T13:43:25;23.40;57.10
7360;DHT22;3720;48.274;7.796;2023-04-15T13:45:57;23.50;55.20
7360;DHT22;3720;48.274;7.796;2023-04-15T13:48:29;23.60;55.10
7360;DHT22;3720;48.274;7.796;2023-04-15T13:51:01;23.70;54.70
7360;DHT22;3720;48.274;7.796;2023-04-15T13:53:33;23.80;53.50
7360;DHT22;3720;48.274;7.796;2023-04-15T13:56:06;23.90;52.30
7360;DHT22;3720;48.274;7.796;2023-04-15T13:58:39;23.80;51.20
7360;DHT22;3720;48.274;7.796;2023-04-15T14:01:11;23.70;52.50
7360;DHT22;3720;48.274;7.796;2023-04-15T14:03:43;23.40;50.90
7360;DHT22;3720;48.274;7.796;2023-04-15T14:06:15;23.30;52.00
7360;DHT22;3720;48.274;7.796;2023-04-15T14:08:48;23.20;52.30
7360;DHT22;3720;48.274;7.796;2023-04-15T14:11:20;23.40;51.70
7360;DHT22;3720;48.274;7.796;2023-04-15T14:13:53;23.40;51.30
7360;DHT22;3720;48.274;7.796;2023-04-15T14:16:25;23.10;50.70
7360;DHT22;3720;48.274;7.796;2023-04-15T14:18:57;22.90;50.00
7360;DHT22;3720;48.274;7.796;2023-04-15T14:21:30;22.90;50.60
7360;DHT22;3720;48.274;7.796;2023-04-15T14:24:03;23.10;51.00
7360;DHT22;3720;48.274;7.796;2023-04-15T14:26:35;23.30;50.40
7360;DHT22;3720;48.274;7.796;2023-04-15T14:29:08;23.30;49.90
7360;DHT22;3720;48.274;7.796;2023-04-15T14:31:40;23.30;49.10
7360;DHT22;3720;48.274;7.796;2023-04-15T14:34:14;23.40;49.20
7360;DHT22;3720;48.274;7.796;2023-04-15T14:36:46;23.50;50.00
7360;DHT22;3720;48.274;7.796;2023-04-15T14:39:18;23.60;49.00
7360;DHT22;3720;48.274;7.796;2023-04-15T14:41:50;23.60;51.50
7360;DHT22;3720;48.274;7.796;2023-04-15T14:44:23;23.70;50.90
7360;DHT22;3720;48.274;7.796;2023-04-15T14:46:55;23.70;52.20
7360;DHT22;3720;48.274;7.796;2023-04-15T14:49:27;23.60;51.50
7360;DHT22;3720;48.274;7.796;2023-04-15T14:51:59;23.30;52.20
7360;DHT22;3720;48.274;7.796;2023-04-15T14:54:31;23.10;52.20
7360;DHT22;3720;48.274;7.796;2023-04-15T14:57:03;22.90;53.50
7360;DHT22;3720;48.274;7.796;2023-04-15T14:59:36;22.90;53.80
7360;DHT22;3720;48.274;7.796;2023-04-15T15:02:08;23.00;54.30
7360;DHT22;3720;48.274;7.796;2023-04-15T15:04:40;23.10;53.70
7360;DHT22;3720;48.274;7.796;2023-04-15T15:07:13;23.20;54.40
7360;DHT22;3720;48.274;7.796;2023-04-15T15:09:44;23.30;53.90
7360;DHT22;3720;48.274;7.796;2023-04-15T15:12:16;23.10;54.30
7360;DHT22;3720;48.274;7.796;2023-04-15T15:14:49;22.90;53.60
7360;DHT22;3720;48.274;7.796;2023-04-15T15:17:21;22.60;54.70
7360;DHT22;3720;48.274;7.796;2023-04-15T15:19:54;22.20;55.00
7360;DHT22;3720;48.274;7.796;2023-04-15T15:22:26;21.80;54.70
7360;DHT22;3720;48.274;7.796;2023-04-15T15:24:57;21.60;56.50
7360;DHT22;3720;48.274;7.796;2023-04-15T15:27:31;21.50;58.10
7360;DHT22;3720;48.274;7.796;2023-04-15T15:30:05;21.60;56.50
7360;DHT22;3720;48.274;7.796;2023-04-15T15:32:40;21.50;57.40
7360;DHT22;3720;48.274;7.796;2023-04-15T15:35:12;21.50;58.60
7360;DHT22;3720;48.274;7.796;2023-04-15T15:37:44;21.50;58.80
7360;DHT22;3720;48.274;7.796;2023-04-15T15:40:16;21.60;58.50
7360;DHT22;3720;48.274;7.796;2023-04-15T15:42:48;21.60;59.00
7360;DHT22;3720;48.274;7.796;2023-04-15T15:45:22;21.50;58.60
7360;DHT22;3720;48.274;7.796;2023-04-15T15:47:54;21.30;59.20
7360;DHT22;3720;48.274;7.796;2023-04-15T15:50:26;21.10;60.10
7360;DHT22;3720;48.274;7.796;2023-04-15T15:52:58;20.90;59.70
7360;DHT22;3720;48.274;7.796;2023-04-15T15:55:30;20.90;60.70
7360;DHT22;3720;48.274;7.796;2023-04-15T15:58:02;20.90;60.90
7360;DHT22;3720;48.274;7.796;2023-04-15T16:00:35;20.90;60.40
7360;DHT22;3720;48.274;7.796;2023-04-15T16:03:07;20.90;61.50
7360;DHT22;3720;48.274;7.796;2023-04-15T16:05:39;20.90;61.60
7360;DHT22;3720;48.274;7.796;2023-04-15T16:08:11;21.00;62.10
7360;DHT22;3720;48.274;7.796;2023-04-15T16:10:43;21.00;62.30
7360;DHT22;3720;48.274;7.796;2023-04-15T16:13:15;21.00;60.50
7360;DHT22;3720;48.274;7.796;2023-04-15T16:15:49;21.00;61.00
7360;DHT22;3720;48.274;7.796;2023-04-15T16:18:20;20.90;60.90
7360;DHT22;3720;48.274;7.796;2023-04-15T16:20:52;20.70;60.20
7360;DHT22;3720;48.274;7.796;2023-04-15T16:23:24;20.50;59.90
7360;DHT22;3720;48.274;7.796;2023-04-15T16:25:56;20.30;61.70
7360;DHT22;3720;48.274;7.796;2023-04-15T16:28:28;20.10;63.70
7360;DHT22;3720;48.274;7.796;2023-04-15T16:31:01;19.90;64.60
7360;DHT22;3720;48.274;7.796;2023-04-15T16:33:34;19.70;65.00
7360;DHT22;3720;48.274;7.796;2023-04-15T16:36:05;19.60;65.50
7360;DHT22;3720;48.274;7.796;2023-04-15T16:38:38;19.40;66.90
7360;DHT22;3720;48.274;7.796;2023-04-15T16:41:10;19.30;68.80
7360;DHT22;3720;48.274;7.796;2023-04-15T16:43:42;19.20;68.90
7360;DHT22;3720;48.274;7.796;2023-04-15T16:46:15;19.10;68.90
7360;DHT22;3720;48.274;7.796;2023-04-15T16:48:47;19.10;69.10
7360;DHT22;3720;48.274;7.796;2023-04-15T16:51:19;19.00;69.70
7360;DHT22;3720;48.274;7.796;2023-04-15T16:53:51;19.00;70.00